EGAA/BFS METAR and TAF weather

Enter ICAO airport designator
Station Type Date Time Source
EGAA METAR 2021/05/11 00:20 UTC NOAA

EGAA 110020Z 21010KT 9999 FEW017 BKN023 09/06 Q0995


Station Type Date Time Source
EGAA Decoded METAR 2021/05/11 00:20 UTC NOAA

Belfast / Aldergrove Airport, United Kingdom (EGAA) 54-39N 006-13W 0M
May 10, 2021 - 08:20 PM EDT / 2021.05.11 0020 UTC
Wind: from the SSW (210 degrees) at 12 MPH (10 KT):0
Visibility: greater than 7 mile(s):0
Sky conditions: mostly cloudy
Temperature: 48 F (9 C)
Dew Point: 42 F (6 C)
Relative Humidity: 81%
Pressure (altimeter): 29.38 in. Hg (0995 hPa)
ob: EGAA 110020Z 21010KT 9999 FEW017 BKN023 09/06 Q0995
cycle: 0

Station Type Date Time Source
EGAA TAF 2021/05/10 19:52 UTC NOAA

TAF
AMD EGAA 101945Z 1019/1118 19012KT 9999 FEW012 SCT025
TEMPO 1019/1024 20015G25KT 6000 SHRA PROB40
TEMPO 1019/1024 4000 +SHRA BKN012CB

Example: see airport list